Pagrindinis puslapis
METAR-TAF:

METAR-TAF

Oro uostai :

Denpasaras, Indonezija

platuma: 08-44-53S, ilguma: 115-10-03E, Aukštis: 4 m

Dabartinis oras

Ataskaita buvo paskelbta 36 minutes, ne 20:30 UTC
Vėjas 3 kt iš Pietų/Pietryčių
Temperatūra 24°C
Drėgmė 94%
Slėgis 1013 hPa
Matomumas 10 km arba daugiau
Išsisklaidę debesys ne aukštis 1700 ft

METAR: WADD 202030Z 15003KT 9999 SCT017 24/23 Q1013 NOSIG

Laikas: 04:06 (21:06 UTC)

Prognozė

Ataskaita buvo paskelbta 4 valandos ir 6 minutes, ne 17:00 UTC
Prognozė galioja nuo 20 metu 18 UTC su 21 metu 18 UTC
Vėjas 12 kt iš Rytų/Pietryčių
Matomumas 10 km arba daugiau
Išsisklaidę debesys ne aukštis 1600 ft
Laikinai
nuo 20 metu 21 UTC su 21 metu 00 UTC
Vėjas 6 kt iš Rytų/Pietryčių

TAF: WADD 201700Z 2018/2118 12012KT 9999 SCT016 TEMPO 2021/2100 11006KT

Orai ataskaitas ir orų prognozės (METAR, TAF).

turimą stotys yra geltonos ir raudonos taškus žemėlapyje.

Perkelti pele per norėdami pamatyti stoties vardą.

Tada spustelėkite, norėdami matyti oro stebėjimo ir prognozės.

Norėdami pakeisti žemėlapį: spustelėkite ant žalios mygtukų su juodo kryžiaus žemyn,; žalią mygtuką su brūkšneliu, jei norite nutolinti; arba žalių rodyklių gretimoms žemėlapius.


METAR-TAF: